sensor_id;sensor_type;location;lat;lon;timestamp;temperature;humidity
1429;DHT22;708;51.442;7.016;2024-03-25T00:01:49;8.50;99.90
1429;DHT22;708;51.442;7.016;2024-03-25T00:04:16;8.50;99.90
1429;DHT22;708;51.442;7.016;2024-03-25T00:06:42;8.40;99.90
1429;DHT22;708;51.442;7.016;2024-03-25T00:09:08;8.40;99.90
1429;DHT22;708;51.442;7.016;2024-03-25T00:11:39;8.40;99.90
1429;DHT22;708;51.442;7.016;2024-03-25T00:14:06;8.30;99.90
1429;DHT22;708;51.442;7.016;2024-03-25T00:16:31;8.30;99.90
1429;DHT22;708;51.442;7.016;2024-03-25T00:19:00;8.30;99.90
1429;DHT22;708;51.442;7.016;2024-03-25T00:21:25;8.30;99.90
1429;DHT22;708;51.442;7.016;2024-03-25T00:23:53;8.20;99.90
1429;DHT22;708;51.442;7.016;2024-03-25T00:26:21;8.20;99.90
1429;DHT22;708;51.442;7.016;2024-03-25T00:28:48;8.20;99.90
1429;DHT22;708;51.442;7.016;2024-03-25T00:31:14;8.20;99.90
1429;DHT22;708;51.442;7.016;2024-03-25T00:33:41;8.20;99.90
1429;DHT22;708;51.442;7.016;2024-03-25T00:36:08;8.20;99.90
1429;DHT22;708;51.442;7.016;2024-03-25T00:38:35;8.10;99.90
1429;DHT22;708;51.442;7.016;2024-03-25T00:41:01;8.10;99.90
1429;DHT22;708;51.442;7.016;2024-03-25T00:43:27;8.00;99.90
1429;DHT22;708;51.442;7.016;2024-03-25T00:45:53;7.90;99.90
1429;DHT22;708;51.442;7.016;2024-03-25T00:48:20;7.80;99.90
1429;DHT22;708;51.442;7.016;2024-03-25T00:50:46;7.70;99.90
1429;DHT22;708;51.442;7.016;2024-03-25T00:53:14;7.60;99.90
1429;DHT22;708;51.442;7.016;2024-03-25T00:55:40;7.50;99.90
1429;DHT22;708;51.442;7.016;2024-03-25T00:58:07;7.50;99.90
1429;DHT22;708;51.442;7.016;2024-03-25T01:00:32;7.50;99.90
1429;DHT22;708;51.442;7.016;2024-03-25T01:02:59;7.50;99.90
1429;DHT22;708;51.442;7.016;2024-03-25T01:05:25;7.40;99.90
1429;DHT22;708;51.442;7.016;2024-03-25T01:07:53;7.40;99.90
1429;DHT22;708;51.442;7.016;2024-03-25T01:10:20;7.40;99.90
1429;DHT22;708;51.442;7.016;2024-03-25T01:12:47;7.30;99.90
1429;DHT22;708;51.442;7.016;2024-03-25T01:15:13;7.40;99.90
1429;DHT22;708;51.442;7.016;2024-03-25T01:17:40;7.30;99.90
1429;DHT22;708;51.442;7.016;2024-03-25T01:20:06;7.20;99.90
1429;DHT22;708;51.442;7.016;2024-03-25T01:22:34;7.20;99.90
1429;DHT22;708;51.442;7.016;2024-03-25T01:25:00;7.20;99.90
1429;DHT22;708;51.442;7.016;2024-03-25T01:27:28;7.20;99.90
1429;DHT22;708;51.442;7.016;2024-03-25T01:29:54;7.20;99.90
1429;DHT22;708;51.442;7.016;2024-03-25T01:32:20;7.20;99.90
1429;DHT22;708;51.442;7.016;2024-03-25T01:34:46;7.30;99.90
1429;DHT22;708;51.442;7.016;2024-03-25T01:37:13;7.30;99.90
1429;DHT22;708;51.442;7.016;2024-03-25T01:39:39;7.30;99.90
1429;DHT22;708;51.442;7.016;2024-03-25T01:42:05;7.30;99.90
1429;DHT22;708;51.442;7.016;2024-03-25T01:44:32;7.30;99.90
1429;DHT22;708;51.442;7.016;2024-03-25T01:46:59;7.20;99.90
1429;DHT22;708;51.442;7.016;2024-03-25T01:49:25;7.20;99.90
1429;DHT22;708;51.442;7.016;2024-03-25T01:51:52;7.10;99.90
1429;DHT22;708;51.442;7.016;2024-03-25T01:54:18;7.10;99.90
1429;DHT22;708;51.442;7.016;2024-03-25T01:56:45;7.00;99.90
1429;DHT22;708;51.442;7.016;2024-03-25T01:59:12;6.90;99.90
1429;DHT22;708;51.442;7.016;2024-03-25T02:01:41;6.90;99.90
1429;DHT22;708;51.442;7.016;2024-03-25T02:04:08;6.90;99.90
1429;DHT22;708;51.442;7.016;2024-03-25T02:06:35;6.80;99.90
1429;DHT22;708;51.442;7.016;2024-03-25T02:09:02;6.80;99.90
1429;DHT22;708;51.442;7.016;2024-03-25T02:11:30;6.90;99.90
1429;DHT22;708;51.442;7.016;2024-03-25T02:13:56;6.80;99.90
1429;DHT22;708;51.442;7.016;2024-03-25T02:16:23;6.90;99.90
1429;DHT22;708;51.442;7.016;2024-03-25T02:18:51;6.80;99.90
1429;DHT22;708;51.442;7.016;2024-03-25T02:21:18;6.80;99.90
1429;DHT22;708;51.442;7.016;2024-03-25T02:23:45;6.70;99.90
1429;DHT22;708;51.442;7.016;2024-03-25T02:26:14;6.60;99.90
1429;DHT22;708;51.442;7.016;2024-03-25T02:28:40;6.60;99.90
1429;DHT22;708;51.442;7.016;2024-03-25T02:31:07;6.60;99.90
1429;DHT22;708;51.442;7.016;2024-03-25T02:33:32;6.50;99.90
1429;DHT22;708;51.442;7.016;2024-03-25T02:35:59;6.50;99.90
1429;DHT22;708;51.442;7.016;2024-03-25T02:38:25;6.50;99.90
1429;DHT22;708;51.442;7.016;2024-03-25T02:40:52;6.40;99.90
1429;DHT22;708;51.442;7.016;2024-03-25T02:43:20;6.40;99.90
1429;DHT22;708;51.442;7.016;2024-03-25T02:45:47;6.30;99.90
1429;DHT22;708;51.442;7.016;2024-03-25T02:48:13;6.40;99.90
1429;DHT22;708;51.442;7.016;2024-03-25T02:50:40;6.30;99.90
1429;DHT22;708;51.442;7.016;2024-03-25T02:53:05;6.30;99.90
1429;DHT22;708;51.442;7.016;2024-03-25T02:55:32;6.30;99.90
1429;DHT22;708;51.442;7.016;2024-03-25T02:57:58;6.20;99.90
1429;DHT22;708;51.442;7.016;2024-03-25T03:00:26;6.20;99.90
1429;DHT22;708;51.442;7.016;2024-03-25T03:02:52;6.30;99.90
1429;DHT22;708;51.442;7.016;2024-03-25T03:05:19;6.20;99.90
1429;DHT22;708;51.442;7.016;2024-03-25T03:07:44;6.30;99.90
1429;DHT22;708;51.442;7.016;2024-03-25T03:10:11;6.30;99.90
1429;DHT22;708;51.442;7.016;2024-03-25T03:12:37;6.30;99.90
1429;DHT22;708;51.442;7.016;2024-03-25T03:15:05;6.30;99.90
1429;DHT22;708;51.442;7.016;2024-03-25T03:17:32;6.20;99.90
1429;DHT22;708;51.442;7.016;2024-03-25T03:19:58;6.20;99.90
1429;DHT22;708;51.442;7.016;2024-03-25T03:22:24;6.20;99.90
1429;DHT22;708;51.442;7.016;2024-03-25T03:24:51;6.20;99.90
1429;DHT22;708;51.442;7.016;2024-03-25T03:27:17;6.10;99.90
1429;DHT22;708;51.442;7.016;2024-03-25T03:29:44;6.10;99.90
1429;DHT22;708;51.442;7.016;2024-03-25T03:32:09;6.10;99.90
1429;DHT22;708;51.442;7.016;2024-03-25T03:34:37;6.00;99.90
1429;DHT22;708;51.442;7.016;2024-03-25T03:37:03;6.00;99.90
1429;DHT22;708;51.442;7.016;2024-03-25T03:39:30;6.10;99.90
1429;DHT22;708;51.442;7.016;2024-03-25T03:41:56;6.10;99.90
1429;DHT22;708;51.442;7.016;2024-03-25T03:44:23;6.20;99.90
1429;DHT22;708;51.442;7.016;2024-03-25T03:46:48;6.30;99.90
1429;DHT22;708;51.442;7.016;2024-03-25T03:49:15;6.30;99.90
1429;DHT22;708;51.442;7.016;2024-03-25T03:51:42;6.40;99.90
1429;DHT22;708;51.442;7.016;2024-03-25T03:54:09;6.40;99.90
1429;DHT22;708;51.442;7.016;2024-03-25T03:56:35;6.50;99.90
1429;DHT22;708;51.442;7.016;2024-03-25T03:59:01;6.60;99.90
1429;DHT22;708;51.442;7.016;2024-03-25T04:01:27;6.60;99.90
1429;DHT22;708;51.442;7.016;2024-03-25T04:03:54;6.70;99.90
1429;DHT22;708;51.442;7.016;2024-03-25T04:06:20;6.80;99.90
1429;DHT22;708;51.442;7.016;2024-03-25T04:08:48;6.90;99.90
1429;DHT22;708;51.442;7.016;2024-03-25T04:11:15;6.90;99.90
1429;DHT22;708;51.442;7.016;2024-03-25T04:13:41;7.00;99.90
1429;DHT22;708;51.442;7.016;2024-03-25T04:16:08;7.00;99.90
1429;DHT22;708;51.442;7.016;2024-03-25T04:18:35;7.10;20.10
1429;DHT22;708;51.442;7.016;2024-03-25T04:21:00;7.20;8.10
1429;DHT22;708;51.442;7.016;2024-03-25T04:23:27;7.20;1.00
1429;DHT22;708;51.442;7.016;2024-03-25T04:25:54;7.10;1.00
1429;DHT22;708;51.442;7.016;2024-03-25T04:28:21;7.10;1.00
1429;DHT22;708;51.442;7.016;2024-03-25T04:30:52;7.10;1.00
1429;DHT22;708;51.442;7.016;2024-03-25T04:33:19;7.20;1.00
1429;DHT22;708;51.442;7.016;2024-03-25T04:35:45;7.10;1.00
1429;DHT22;708;51.442;7.016;2024-03-25T04:38:12;7.10;1.00
1429;DHT22;708;51.442;7.016;2024-03-25T04:40:38;7.20;1.00
1429;DHT22;708;51.442;7.016;2024-03-25T04:43:05;7.20;1.00
1429;DHT22;708;51.442;7.016;2024-03-25T04:45:31;7.20;1.00
1429;DHT22;708;51.442;7.016;2024-03-25T04:47:57;7.20;1.00
1429;DHT22;708;51.442;7.016;2024-03-25T04:50:23;7.20;1.00
1429;DHT22;708;51.442;7.016;2024-03-25T04:52:49;7.10;1.00
1429;DHT22;708;51.442;7.016;2024-03-25T04:55:15;7.00;1.00
1429;DHT22;708;51.442;7.016;2024-03-25T04:57:41;6.90;1.00
1429;DHT22;708;51.442;7.016;2024-03-25T05:00:09;6.80;1.00
1429;DHT22;708;51.442;7.016;2024-03-25T05:02:36;6.70;1.00
1429;DHT22;708;51.442;7.016;2024-03-25T05:05:02;6.60;1.00
1429;DHT22;708;51.442;7.016;2024-03-25T05:07:28;6.60;1.00
1429;DHT22;708;51.442;7.016;2024-03-25T05:09:54;6.60;1.00
1429;DHT22;708;51.442;7.016;2024-03-25T05:12:20;6.50;1.00
1429;DHT22;708;51.442;7.016;2024-03-25T05:14:45;6.40;1.00
1429;DHT22;708;51.442;7.016;2024-03-25T05:17:13;6.40;1.00
1429;DHT22;708;51.442;7.016;2024-03-25T05:19:38;6.40;8.00
1429;DHT22;708;51.442;7.016;2024-03-25T05:22:05;6.40;17.70
1429;DHT22;708;51.442;7.016;2024-03-25T05:24:30;6.40;23.80
1429;DHT22;708;51.442;7.016;2024-03-25T05:26:56;6.30;32.30
1429;DHT22;708;51.442;7.016;2024-03-25T05:29:22;6.40;36.90
1429;DHT22;708;51.442;7.016;2024-03-25T05:31:56;6.30;30.80
1429;DHT22;708;51.442;7.016;2024-03-25T05:34:24;6.20;34.10
1429;DHT22;708;51.442;7.016;2024-03-25T05:36:50;6.20;38.40
1429;DHT22;708;51.442;7.016;2024-03-25T05:39:16;6.20;50.10
1429;DHT22;708;51.442;7.016;2024-03-25T05:41:42;6.20;52.70
1429;DHT22;708;51.442;7.016;2024-03-25T05:44:08;6.20;57.80
1429;DHT22;708;51.442;7.016;2024-03-25T05:46:34;6.20;70.60
1429;DHT22;708;51.442;7.016;2024-03-25T05:49:01;6.20;85.80
1429;DHT22;708;51.442;7.016;2024-03-25T05:51:29;6.30;92.10
1429;DHT22;708;51.442;7.016;2024-03-25T05:53:55;6.40;99.60
1429;DHT22;708;51.442;7.016;2024-03-25T05:56:20;6.50;99.90
1429;DHT22;708;51.442;7.016;2024-03-25T05:58:46;6.60;99.90
1429;DHT22;708;51.442;7.016;2024-03-25T06:01:12;6.70;95.00
1429;DHT22;708;51.442;7.016;2024-03-25T06:03:38;6.90;86.40
1429;DHT22;708;51.442;7.016;2024-03-25T06:06:04;7.00;68.00
1429;DHT22;708;51.442;7.016;2024-03-25T06:08:31;7.30;64.10
1429;DHT22;708;51.442;7.016;2024-03-25T06:11:00;7.60;61.90
1429;DHT22;708;51.442;7.016;2024-03-25T06:13:26;7.90;35.00
1429;DHT22;708;51.442;7.016;2024-03-25T06:15:52;8.30;1.00
1429;DHT22;708;51.442;7.016;2024-03-25T06:18:19;8.70;1.00
1429;DHT22;708;51.442;7.016;2024-03-25T06:20:45;9.60;1.00
1429;DHT22;708;51.442;7.016;2024-03-25T06:23:21;10.40;99.90
1429;DHT22;708;51.442;7.016;2024-03-25T06:25:50;11.40;99.90
1429;DHT22;708;51.442;7.016;2024-03-25T06:28:15;12.30;99.90
1429;DHT22;708;51.442;7.016;2024-03-25T06:30:41;13.30;1.00
1429;DHT22;708;51.442;7.016;2024-03-25T06:33:26;14.30;99.90
1429;DHT22;708;51.442;7.016;2024-03-25T06:36:10;15.40;99.90
1429;DHT22;708;51.442;7.016;2024-03-25T06:38:36;15.90;99.90
1429;DHT22;708;51.442;7.016;2024-03-25T06:41:03;15.90;99.90
1429;DHT22;708;51.442;7.016;2024-03-25T06:43:29;15.80;99.90
1429;DHT22;708;51.442;7.016;2024-03-25T06:45:55;16.00;99.90
1429;DHT22;708;51.442;7.016;2024-03-25T06:48:21;16.30;81.60
1429;DHT22;708;51.442;7.016;2024-03-25T06:50:52;16.70;1.00
1429;DHT22;708;51.442;7.016;2024-03-25T06:53:18;17.40;1.00
1429;DHT22;708;51.442;7.016;2024-03-25T06:55:51;17.80;1.00
1429;DHT22;708;51.442;7.016;2024-03-25T06:58:19;18.10;1.00
1429;DHT22;708;51.442;7.016;2024-03-25T07:00:45;18.00;1.00
1429;DHT22;708;51.442;7.016;2024-03-25T07:03:11;18.50;99.90
1429;DHT22;708;51.442;7.016;2024-03-25T07:05:37;19.10;99.90
1429;DHT22;708;51.442;7.016;2024-03-25T07:08:03;19.40;99.90
1429;DHT22;708;51.442;7.016;2024-03-25T07:10:29;19.80;99.90
1429;DHT22;708;51.442;7.016;2024-03-25T07:12:55;20.30;99.90
1429;DHT22;708;51.442;7.016;2024-03-25T07:15:35;20.70;99.90
1429;DHT22;708;51.442;7.016;2024-03-25T07:18:12;21.00;99.90
1429;DHT22;708;51.442;7.016;2024-03-25T07:20:43;21.50;99.90
1429;DHT22;708;51.442;7.016;2024-03-25T07:23:09;22.00;99.90
1429;DHT22;708;51.442;7.016;2024-03-25T07:25:35;22.50;99.90
1429;DHT22;708;51.442;7.016;2024-03-25T07:28:02;22.70;99.90
1429;DHT22;708;51.442;7.016;2024-03-25T07:30:30;23.10;99.90
1429;DHT22;708;51.442;7.016;2024-03-25T07:32:56;23.70;99.90
1429;DHT22;708;51.442;7.016;2024-03-25T07:35:23;24.30;99.90
1429;DHT22;708;51.442;7.016;2024-03-25T07:37:48;24.80;99.90
1429;DHT22;708;51.442;7.016;2024-03-25T07:40:15;25.40;99.90
1429;DHT22;708;51.442;7.016;2024-03-25T07:42:41;24.90;99.90
1429;DHT22;708;51.442;7.016;2024-03-25T07:45:07;23.70;99.90
1429;DHT22;708;51.442;7.016;2024-03-25T07:47:34;23.40;99.90
1429;DHT22;708;51.442;7.016;2024-03-25T07:50:00;24.00;99.90
1429;DHT22;708;51.442;7.016;2024-03-25T07:52:26;24.60;99.90
1429;DHT22;708;51.442;7.016;2024-03-25T07:54:52;24.80;99.90
1429;DHT22;708;51.442;7.016;2024-03-25T07:57:18;24.80;99.90
1429;DHT22;708;51.442;7.016;2024-03-25T07:59:45;24.70;99.90
1429;DHT22;708;51.442;7.016;2024-03-25T08:02:10;24.70;99.90
1429;DHT22;708;51.442;7.016;2024-03-25T08:04:38;25.20;99.90
1429;DHT22;708;51.442;7.016;2024-03-25T08:07:04;25.90;99.90
1429;DHT22;708;51.442;7.016;2024-03-25T08:09:30;26.70;99.90
1429;DHT22;708;51.442;7.016;2024-03-25T08:11:56;27.00;99.90
1429;DHT22;708;51.442;7.016;2024-03-25T08:14:22;27.40;99.90
1429;DHT22;708;51.442;7.016;2024-03-25T08:16:48;27.50;99.90
1429;DHT22;708;51.442;7.016;2024-03-25T08:19:14;27.60;99.90
1429;DHT22;708;51.442;7.016;2024-03-25T08:21:41;27.80;99.90
1429;DHT22;708;51.442;7.016;2024-03-25T08:24:07;27.90;99.90
1429;DHT22;708;51.442;7.016;2024-03-25T08:26:33;28.20;99.90
1429;DHT22;708;51.442;7.016;2024-03-25T08:28:59;28.00;99.90
1429;DHT22;708;51.442;7.016;2024-03-25T08:31:25;28.00;99.90
1429;DHT22;708;51.442;7.016;2024-03-25T08:33:51;28.40;99.90
1429;DHT22;708;51.442;7.016;2024-03-25T08:36:16;28.60;99.90
1429;DHT22;708;51.442;7.016;2024-03-25T08:38:44;29.00;99.90
1429;DHT22;708;51.442;7.016;2024-03-25T08:41:10;29.10;99.90
1429;DHT22;708;51.442;7.016;2024-03-25T08:43:36;29.20;99.90
1429;DHT22;708;51.442;7.016;2024-03-25T08:46:02;29.10;99.90
1429;DHT22;708;51.442;7.016;2024-03-25T08:48:28;28.10;99.90
1429;DHT22;708;51.442;7.016;2024-03-25T08:50:54;28.00;99.90
1429;DHT22;708;51.442;7.016;2024-03-25T08:53:20;28.30;99.90
1429;DHT22;708;51.442;7.016;2024-03-25T08:55:47;27.70;99.90
1429;DHT22;708;51.442;7.016;2024-03-25T09:00:40;25.60;99.90
1429;DHT22;708;51.442;7.016;2024-03-25T09:03:06;24.40;99.90
1429;DHT22;708;51.442;7.016;2024-03-25T09:05:32;23.90;99.90
1429;DHT22;708;51.442;7.016;2024-03-25T09:07:58;23.90;99.90
1429;DHT22;708;51.442;7.016;2024-03-25T09:10:24;24.40;99.90
1429;DHT22;708;51.442;7.016;2024-03-25T09:13:09;24.90;99.90
1429;DHT22;708;51.442;7.016;2024-03-25T09:15:35;25.60;99.90
1429;DHT22;708;51.442;7.016;2024-03-25T09:18:01;26.50;99.90
1429;DHT22;708;51.442;7.016;2024-03-25T09:20:27;26.40;99.90
1429;DHT22;708;51.442;7.016;2024-03-25T09:22:53;26.00;99.90
1429;DHT22;708;51.442;7.016;2024-03-25T09:25:19;25.00;99.90
1429;DHT22;708;51.442;7.016;2024-03-25T09:27:45;23.80;99.90
1429;DHT22;708;51.442;7.016;2024-03-25T09:30:13;22.80;99.90
1429;DHT22;708;51.442;7.016;2024-03-25T09:32:39;21.70;99.90
1429;DHT22;708;51.442;7.016;2024-03-25T09:35:06;20.80;99.90
1429;DHT22;708;51.442;7.016;2024-03-25T09:37:31;19.80;99.90
1429;DHT22;708;51.442;7.016;2024-03-25T09:39:57;19.20;99.90
1429;DHT22;708;51.442;7.016;2024-03-25T09:42:26;18.90;99.90
1429;DHT22;708;51.442;7.016;2024-03-25T09:44:54;18.60;99.90
1429;DHT22;708;51.442;7.016;2024-03-25T09:47:21;18.40;99.90
1429;DHT22;708;51.442;7.016;2024-03-25T09:49:47;18.20;99.90
1429;DHT22;708;51.442;7.016;2024-03-25T09:52:14;18.10;99.90
1429;DHT22;708;51.442;7.016;2024-03-25T09:54:40;17.90;99.90
1429;DHT22;708;51.442;7.016;2024-03-25T09:57:06;17.70;99.90
1429;DHT22;708;51.442;7.016;2024-03-25T09:59:33;17.60;99.90
1429;DHT22;708;51.442;7.016;2024-03-25T10:01:59;17.50;99.90
1429;DHT22;708;51.442;7.016;2024-03-25T10:04:27;17.50;99.90
1429;DHT22;708;51.442;7.016;2024-03-25T10:06:53;17.60;99.90
1429;DHT22;708;51.442;7.016;2024-03-25T10:09:19;17.50;99.90
1429;DHT22;708;51.442;7.016;2024-03-25T10:11:47;17.70;99.90
1429;DHT22;708;51.442;7.016;2024-03-25T10:14:14;17.70;99.90
1429;DHT22;708;51.442;7.016;2024-03-25T10:16:40;17.90;99.90
1429;DHT22;708;51.442;7.016;2024-03-25T10:19:06;18.00;99.90
1429;DHT22;708;51.442;7.016;2024-03-25T10:21:34;17.90;99.90
1429;DHT22;708;51.442;7.016;2024-03-25T10:23:59;17.60;99.90
1429;DHT22;708;51.442;7.016;2024-03-25T10:26:27;17.60;99.90
1429;DHT22;708;51.442;7.016;2024-03-25T10:29:00;17.50;99.90
1429;DHT22;708;51.442;7.016;2024-03-25T10:31:26;17.20;99.90
1429;DHT22;708;51.442;7.016;2024-03-25T10:33:52;17.30;99.90
1429;DHT22;708;51.442;7.016;2024-03-25T10:36:19;17.40;99.90
1429;DHT22;708;51.442;7.016;2024-03-25T10:38:49;17.30;99.90
1429;DHT22;708;51.442;7.016;2024-03-25T10:41:18;17.40;99.90
1429;DHT22;708;51.442;7.016;2024-03-25T10:43:46;17.40;99.90
1429;DHT22;708;51.442;7.016;2024-03-25T10:46:14;17.40;99.90
1429;DHT22;708;51.442;7.016;2024-03-25T10:48:43;17.10;99.90
1429;DHT22;708;51.442;7.016;2024-03-25T10:51:13;16.90;99.90
1429;DHT22;708;51.442;7.016;2024-03-25T10:53:40;16.90;99.90
1429;DHT22;708;51.442;7.016;2024-03-25T10:56:08;16.80;99.90
1429;DHT22;708;51.442;7.016;2024-03-25T10:58:34;16.80;99.90
1429;DHT22;708;51.442;7.016;2024-03-25T11:01:01;17.00;99.90
1429;DHT22;708;51.442;7.016;2024-03-25T11:03:28;17.10;99.90
1429;DHT22;708;51.442;7.016;2024-03-25T11:05:54;17.20;99.90
1429;DHT22;708;51.442;7.016;2024-03-25T11:08:19;17.20;99.90
1429;DHT22;708;51.442;7.016;2024-03-25T11:10:47;17.40;99.90
1429;DHT22;708;51.442;7.016;2024-03-25T11:13:16;17.60;99.90
1429;DHT22;708;51.442;7.016;2024-03-25T11:15:43;17.80;99.90
1429;DHT22;708;51.442;7.016;2024-03-25T11:18:12;17.90;99.90
1429;DHT22;708;51.442;7.016;2024-03-25T11:20:39;18.10;99.90
1429;DHT22;708;51.442;7.016;2024-03-25T11:23:09;18.10;99.90
1429;DHT22;708;51.442;7.016;2024-03-25T11:25:35;17.70;99.90
1429;DHT22;708;51.442;7.016;2024-03-25T11:28:01;17.40;99.90
1429;DHT22;708;51.442;7.016;2024-03-25T11:30:29;17.20;99.90
1429;DHT22;708;51.442;7.016;2024-03-25T11:32:55;16.90;99.90
1429;DHT22;708;51.442;7.016;2024-03-25T11:35:21;16.70;99.90
1429;DHT22;708;51.442;7.016;2024-03-25T11:37:47;16.50;99.90
1429;DHT22;708;51.442;7.016;2024-03-25T11:40:14;16.20;99.90
1429;DHT22;708;51.442;7.016;2024-03-25T11:42:41;16.10;99.90
1429;DHT22;708;51.442;7.016;2024-03-25T11:45:10;15.90;99.90
1429;DHT22;708;51.442;7.016;2024-03-25T11:47:42;15.70;99.90
1429;DHT22;708;51.442;7.016;2024-03-25T11:50:08;15.60;99.90
1429;DHT22;708;51.442;7.016;2024-03-25T11:52:35;15.50;99.90
1429;DHT22;708;51.442;7.016;2024-03-25T11:55:01;15.40;99.90
1429;DHT22;708;51.442;7.016;2024-03-25T11:57:28;15.40;99.90
1429;DHT22;708;51.442;7.016;2024-03-25T11:59:54;15.40;99.90
1429;DHT22;708;51.442;7.016;2024-03-25T12:02:20;15.40;99.90
1429;DHT22;708;51.442;7.016;2024-03-25T12:04:47;15.40;99.90
1429;DHT22;708;51.442;7.016;2024-03-25T12:07:14;15.30;99.90
1429;DHT22;708;51.442;7.016;2024-03-25T12:09:40;15.60;99.90
1429;DHT22;708;51.442;7.016;2024-03-25T12:12:25;15.80;99.90
1429;DHT22;708;51.442;7.016;2024-03-25T12:14:52;16.00;99.90
1429;DHT22;708;51.442;7.016;2024-03-25T12:17:19;16.40;99.90
1429;DHT22;708;51.442;7.016;2024-03-25T12:19:57;16.70;99.90
1429;DHT22;708;51.442;7.016;2024-03-25T12:22:24;16.60;99.90
1429;DHT22;708;51.442;7.016;2024-03-25T12:24:50;16.70;99.90
1429;DHT22;708;51.442;7.016;2024-03-25T12:27:16;16.70;99.90
1429;DHT22;708;51.442;7.016;2024-03-25T12:29:42;16.70;99.90
1429;DHT22;708;51.442;7.016;2024-03-25T12:32:09;17.00;99.90
1429;DHT22;708;51.442;7.016;2024-03-25T12:34:35;16.90;99.90
1429;DHT22;708;51.442;7.016;2024-03-25T12:37:03;16.80;99.90
1429;DHT22;708;51.442;7.016;2024-03-25T12:39:29;16.70;99.90
1429;DHT22;708;51.442;7.016;2024-03-25T12:41:55;16.30;99.90
1429;DHT22;708;51.442;7.016;2024-03-25T12:44:21;15.90;99.90
1429;DHT22;708;51.442;7.016;2024-03-25T12:46:47;15.50;99.90
1429;DHT22;708;51.442;7.016;2024-03-25T12:49:13;15.20;99.90
1429;DHT22;708;51.442;7.016;2024-03-25T12:51:39;15.10;99.90
1429;DHT22;708;51.442;7.016;2024-03-25T12:54:06;15.00;99.90
1429;DHT22;708;51.442;7.016;2024-03-25T12:56:32;14.90;99.90
1429;DHT22;708;51.442;7.016;2024-03-25T12:58:58;14.90;99.90
1429;DHT22;708;51.442;7.016;2024-03-25T13:01:23;15.00;99.90
1429;DHT22;708;51.442;7.016;2024-03-25T13:03:49;15.20;99.90
1429;DHT22;708;51.442;7.016;2024-03-25T13:06:15;15.60;99.90
1429;DHT22;708;51.442;7.016;2024-03-25T13:08:41;15.80;99.90
1429;DHT22;708;51.442;7.016;2024-03-25T13:11:08;15.90;99.90
1429;DHT22;708;51.442;7.016;2024-03-25T13:13:34;16.20;99.90
1429;DHT22;708;51.442;7.016;2024-03-25T13:16:00;16.10;99.90
1429;DHT22;708;51.442;7.016;2024-03-25T13:18:26;16.10;99.90
1429;DHT22;708;51.442;7.016;2024-03-25T13:20:52;16.10;99.90
1429;DHT22;708;51.442;7.016;2024-03-25T13:23:17;16.10;99.90
1429;DHT22;708;51.442;7.016;2024-03-25T13:25:43;16.20;99.90
1429;DHT22;708;51.442;7.016;2024-03-25T13:28:10;16.20;99.90
1429;DHT22;708;51.442;7.016;2024-03-25T13:30:36;16.00;99.90
1429;DHT22;708;51.442;7.016;2024-03-25T13:33:02;15.90;99.90
1429;DHT22;708;51.442;7.016;2024-03-25T13:35:28;15.80;99.90
1429;DHT22;708;51.442;7.016;2024-03-25T13:37:54;15.70;99.90
1429;DHT22;708;51.442;7.016;2024-03-25T13:40:20;15.40;99.90
1429;DHT22;708;51.442;7.016;2024-03-25T13:42:45;15.20;99.90
1429;DHT22;708;51.442;7.016;2024-03-25T13:45:13;15.10;99.90
1429;DHT22;708;51.442;7.016;2024-03-25T13:47:39;14.90;99.90
1429;DHT22;708;51.442;7.016;2024-03-25T13:50:06;14.60;99.90
1429;DHT22;708;51.442;7.016;2024-03-25T13:52:32;14.50;99.90
1429;DHT22;708;51.442;7.016;2024-03-25T13:54:58;14.50;99.90
1429;DHT22;708;51.442;7.016;2024-03-25T13:57:24;14.50;99.90
1429;DHT22;708;51.442;7.016;2024-03-25T13:59:50;14.50;99.90
1429;DHT22;708;51.442;7.016;2024-03-25T14:02:17;14.50;99.90
1429;DHT22;708;51.442;7.016;2024-03-25T14:04:43;14.40;99.90
1429;DHT22;708;51.442;7.016;2024-03-25T14:07:09;14.30;99.90
1429;DHT22;708;51.442;7.016;2024-03-25T14:09:35;14.30;99.90
1429;DHT22;708;51.442;7.016;2024-03-25T14:12:01;14.20;99.90
1429;DHT22;708;51.442;7.016;2024-03-25T14:14:27;14.20;99.90
1429;DHT22;708;51.442;7.016;2024-03-25T14:16:52;14.30;99.90
1429;DHT22;708;51.442;7.016;2024-03-25T14:19:19;14.40;99.90
1429;DHT22;708;51.442;7.016;2024-03-25T14:21:48;14.40;99.90
1429;DHT22;708;51.442;7.016;2024-03-25T14:24:14;14.50;99.90
1429;DHT22;708;51.442;7.016;2024-03-25T14:26:40;14.60;99.90
1429;DHT22;708;51.442;7.016;2024-03-25T14:29:05;14.50;99.90
1429;DHT22;708;51.442;7.016;2024-03-25T14:31:31;14.40;99.90
1429;DHT22;708;51.442;7.016;2024-03-25T14:33:58;14.20;99.90
1429;DHT22;708;51.442;7.016;2024-03-25T14:36:25;14.00;99.90
1429;DHT22;708;51.442;7.016;2024-03-25T14:38:51;14.00;99.90
1429;DHT22;708;51.442;7.016;2024-03-25T14:41:19;13.90;99.90
1429;DHT22;708;51.442;7.016;2024-03-25T14:43:45;13.80;99.90
1429;DHT22;708;51.442;7.016;2024-03-25T14:46:11;13.70;99.90
1429;DHT22;708;51.442;7.016;2024-03-25T14:48:37;13.60;99.90
1429;DHT22;708;51.442;7.016;2024-03-25T14:51:03;13.50;99.90
1429;DHT22;708;51.442;7.016;2024-03-25T14:53:31;13.50;99.90
1429;DHT22;708;51.442;7.016;2024-03-25T14:55:56;13.60;99.90
1429;DHT22;708;51.442;7.016;2024-03-25T14:58:22;13.70;99.90
1429;DHT22;708;51.442;7.016;2024-03-25T15:00:48;13.70;99.90
1429;DHT22;708;51.442;7.016;2024-03-25T15:03:14;13.70;99.90
1429;DHT22;708;51.442;7.016;2024-03-25T15:05:40;13.60;99.90
1429;DHT22;708;51.442;7.016;2024-03-25T15:08:06;13.60;99.90
1429;DHT22;708;51.442;7.016;2024-03-25T15:10:34;13.60;99.90
1429;DHT22;708;51.442;7.016;2024-03-25T15:13:00;13.60;99.90
1429;DHT22;708;51.442;7.016;2024-03-25T15:15:26;13.50;99.90
1429;DHT22;708;51.442;7.016;2024-03-25T15:17:52;13.60;99.90
1429;DHT22;708;51.442;7.016;2024-03-25T15:20:18;13.50;99.90
1429;DHT22;708;51.442;7.016;2024-03-25T15:22:44;13.50;99.90
1429;DHT22;708;51.442;7.016;2024-03-25T15:25:10;13.40;99.90
1429;DHT22;708;51.442;7.016;2024-03-25T15:27:37;13.30;99.90
1429;DHT22;708;51.442;7.016;2024-03-25T15:30:04;13.20;99.90
1429;DHT22;708;51.442;7.016;2024-03-25T15:32:30;13.10;99.90
1429;DHT22;708;51.442;7.016;2024-03-25T15:34:55;13.10;99.90
1429;DHT22;708;51.442;7.016;2024-03-25T15:37:22;13.00;99.90
1429;DHT22;708;51.442;7.016;2024-03-25T15:39:48;12.90;99.90
1429;DHT22;708;51.442;7.016;2024-03-25T15:42:14;12.90;99.90
1429;DHT22;708;51.442;7.016;2024-03-25T15:44:41;12.90;99.90
1429;DHT22;708;51.442;7.016;2024-03-25T15:47:07;12.80;99.90
1429;DHT22;708;51.442;7.016;2024-03-25T15:49:33;12.80;99.90
1429;DHT22;708;51.442;7.016;2024-03-25T15:51:59;12.80;99.90
1429;DHT22;708;51.442;7.016;2024-03-25T15:54:25;12.80;99.90
1429;DHT22;708;51.442;7.016;2024-03-25T15:56:51;12.80;99.90
1429;DHT22;708;51.442;7.016;2024-03-25T15:59:16;12.80;99.90
1429;DHT22;708;51.442;7.016;2024-03-25T16:01:44;12.80;99.90
1429;DHT22;708;51.442;7.016;2024-03-25T16:04:09;12.80;99.90
1429;DHT22;708;51.442;7.016;2024-03-25T16:06:35;12.80;99.90
1429;DHT22;708;51.442;7.016;2024-03-25T16:09:01;12.80;99.90
1429;DHT22;708;51.442;7.016;2024-03-25T16:11:27;12.70;99.90
1429;DHT22;708;51.442;7.016;2024-03-25T16:13:53;12.70;99.90
1429;DHT22;708;51.442;7.016;2024-03-25T16:16:20;12.60;99.90
1429;DHT22;708;51.442;7.016;2024-03-25T16:18:47;12.60;99.90
1429;DHT22;708;51.442;7.016;2024-03-25T16:21:14;12.60;99.90
1429;DHT22;708;51.442;7.016;2024-03-25T16:23:41;12.50;99.90
1429;DHT22;708;51.442;7.016;2024-03-25T16:26:07;12.50;99.90